TAF KGDV
KGDV 270540Z 2706/2806 29010G24KT P6SM FEW090 FM270700 29010KT P6SM FEW060 WS020/31045KT FM270900 30010KT P6SM FEW050 FM272300 VRB04KT P6SM SCT160=
METAR KGDV
WC KGDV
WS KGDV
WV KGDV